sensor_id;sensor_type;location;lat;lon;timestamp;P1;durP1;ratioP1;P2;durP2;ratioP2
27257;SDS011;62045;49.986;8.672;2022-08-19T00:04:35;5.85;;;5.25;;
27257;SDS011;62045;49.986;8.672;2022-08-19T00:09:37;5.68;;;5.05;;
27257;SDS011;62045;49.986;8.672;2022-08-19T00:14:38;6.10;;;5.47;;
27257;SDS011;62045;49.986;8.672;2022-08-19T00:19:39;5.55;;;5.00;;
27257;SDS011;62045;49.986;8.672;2022-08-19T00:24:42;6.30;;;5.70;;
27257;SDS011;62045;49.986;8.672;2022-08-19T00:29:42;5.90;;;5.30;;
27257;SDS011;62045;49.986;8.672;2022-08-19T00:34:43;6.03;;;5.30;;
27257;SDS011;62045;49.986;8.672;2022-08-19T00:39:45;5.53;;;4.88;;
27257;SDS011;62045;49.986;8.672;2022-08-19T00:44:46;5.97;;;5.37;;
27257;SDS011;62045;49.986;8.672;2022-08-19T00:49:48;6.88;;;5.13;;
27257;SDS011;62045;49.986;8.672;2022-08-19T00:54:53;6.30;;;5.70;;
27257;SDS011;62045;49.986;8.672;2022-08-19T00:59:54;6.03;;;5.03;;
27257;SDS011;62045;49.986;8.672;2022-08-19T01:04:56;5.27;;;4.77;;
27257;SDS011;62045;49.986;8.672;2022-08-19T01:09:58;5.95;;;4.95;;
27257;SDS011;62045;49.986;8.672;2022-08-19T01:15:00;6.05;;;5.45;;
27257;SDS011;62045;49.986;8.672;2022-08-19T01:20:02;6.10;;;5.50;;
27257;SDS011;62045;49.986;8.672;2022-08-19T01:25:05;7.30;;;5.50;;
27257;SDS011;62045;49.986;8.672;2022-08-19T01:30:07;5.65;;;5.05;;
27257;SDS011;62045;49.986;8.672;2022-08-19T01:35:11;6.40;;;5.00;;
27257;SDS011;62045;49.986;8.672;2022-08-19T01:40:14;5.07;;;4.57;;
27257;SDS011;62045;49.986;8.672;2022-08-19T01:45:16;6.90;;;5.20;;
27257;SDS011;62045;49.986;8.672;2022-08-19T01:50:18;5.18;;;4.68;;
27257;SDS011;62045;49.986;8.672;2022-08-19T01:55:21;5.35;;;4.85;;
27257;SDS011;62045;49.986;8.672;2022-08-19T02:00:23;5.35;;;4.55;;
27257;SDS011;62045;49.986;8.672;2022-08-19T02:05:26;5.45;;;4.95;;
27257;SDS011;62045;49.986;8.672;2022-08-19T02:10:28;5.57;;;5.07;;
27257;SDS011;62045;49.986;8.672;2022-08-19T02:15:29;5.73;;;5.10;;
27257;SDS011;62045;49.986;8.672;2022-08-19T02:20:30;5.65;;;5.15;;
27257;SDS011;62045;49.986;8.672;2022-08-19T02:25:32;5.35;;;4.65;;
27257;SDS011;62045;49.986;8.672;2022-08-19T02:30:33;5.07;;;4.57;;
27257;SDS011;62045;49.986;8.672;2022-08-19T02:35:34;5.97;;;4.68;;
27257;SDS011;62045;49.986;8.672;2022-08-19T02:40:36;5.03;;;4.50;;
27257;SDS011;62045;49.986;8.672;2022-08-19T02:45:38;5.10;;;4.60;;
27257;SDS011;62045;49.986;8.672;2022-08-19T02:50:39;5.28;;;4.78;;
27257;SDS011;62045;49.986;8.672;2022-08-19T02:55:45;5.53;;;4.82;;
27257;SDS011;62045;49.986;8.672;2022-08-19T03:00:46;5.60;;;5.00;;
27257;SDS011;62045;49.986;8.672;2022-08-19T03:05:49;5.70;;;5.05;;
27257;SDS011;62045;49.986;8.672;2022-08-19T03:10:51;5.03;;;4.53;;
27257;SDS011;62045;49.986;8.672;2022-08-19T03:15:52;5.20;;;4.70;;
27257;SDS011;62045;49.986;8.672;2022-08-19T03:20:53;5.10;;;4.60;;
27257;SDS011;62045;49.986;8.672;2022-08-19T03:25:55;5.00;;;4.50;;
27257;SDS011;62045;49.986;8.672;2022-08-19T03:30:56;5.85;;;5.25;;
27257;SDS011;62045;49.986;8.672;2022-08-19T03:35:59;5.07;;;4.35;;
27257;SDS011;62045;49.986;8.672;2022-08-19T03:41:10;4.93;;;4.43;;
27257;SDS011;62045;49.986;8.672;2022-08-19T03:46:13;5.13;;;4.63;;
27257;SDS011;62045;49.986;8.672;2022-08-19T03:56:19;5.00;;;4.50;;
27257;SDS011;62045;49.986;8.672;2022-08-19T04:01:20;5.00;;;4.50;;
27257;SDS011;62045;49.986;8.672;2022-08-19T04:06:24;4.90;;;4.40;;
27257;SDS011;62045;49.986;8.672;2022-08-19T04:11:30;5.30;;;4.70;;
27257;SDS011;62045;49.986;8.672;2022-08-19T04:16:33;4.68;;;4.03;;
27257;SDS011;62045;49.986;8.672;2022-08-19T04:21:34;5.65;;;5.00;;
27257;SDS011;62045;49.986;8.672;2022-08-19T04:26:36;5.05;;;4.55;;
27257;SDS011;62045;49.986;8.672;2022-08-19T04:31:38;5.27;;;4.63;;
27257;SDS011;62045;49.986;8.672;2022-08-19T04:36:40;5.65;;;4.50;;
27257;SDS011;62045;49.986;8.672;2022-08-19T04:41:44;4.67;;;4.17;;
27257;SDS011;62045;49.986;8.672;2022-08-19T04:51:46;5.20;;;4.70;;
27257;SDS011;62045;49.986;8.672;2022-08-19T04:56:49;4.60;;;4.10;;
27257;SDS011;62045;49.986;8.672;2022-08-19T05:01:50;4.43;;;3.87;;
27257;SDS011;62045;49.986;8.672;2022-08-19T05:06:51;5.47;;;4.57;;
27257;SDS011;62045;49.986;8.672;2022-08-19T05:11:53;4.60;;;4.20;;
27257;SDS011;62045;49.986;8.672;2022-08-19T05:16:54;5.13;;;4.63;;
27257;SDS011;62045;49.986;8.672;2022-08-19T05:21:54;4.90;;;4.38;;
27257;SDS011;62045;49.986;8.672;2022-08-19T05:26:57;5.30;;;4.80;;
27257;SDS011;62045;49.986;8.672;2022-08-19T05:31:58;5.10;;;4.60;;
27257;SDS011;62045;49.986;8.672;2022-08-19T05:36:58;5.13;;;4.63;;
27257;SDS011;62045;49.986;8.672;2022-08-19T05:42:03;6.80;;;4.30;;
27257;SDS011;62045;49.986;8.672;2022-08-19T05:47:06;4.85;;;4.13;;
27257;SDS011;62045;49.986;8.672;2022-08-19T05:52:08;4.88;;;4.38;;
27257;SDS011;62045;49.986;8.672;2022-08-19T05:57:12;5.25;;;4.63;;
27257;SDS011;62045;49.986;8.672;2022-08-19T06:02:13;4.55;;;4.15;;
27257;SDS011;62045;49.986;8.672;2022-08-19T06:07:14;4.70;;;4.07;;
27257;SDS011;62045;49.986;8.672;2022-08-19T06:12:17;4.75;;;4.22;;
27257;SDS011;62045;49.986;8.672;2022-08-19T06:17:17;4.40;;;4.00;;
27257;SDS011;62045;49.986;8.672;2022-08-19T06:22:18;4.50;;;4.10;;
27257;SDS011;62045;49.986;8.672;2022-08-19T06:27:21;5.07;;;4.35;;
27257;SDS011;62045;49.986;8.672;2022-08-19T06:32:22;4.75;;;4.28;;
27257;SDS011;62045;49.986;8.672;2022-08-19T06:37:23;5.50;;;4.35;;
27257;SDS011;62045;49.986;8.672;2022-08-19T06:42:25;4.40;;;4.00;;
27257;SDS011;62045;49.986;8.672;2022-08-19T06:47:26;4.73;;;4.10;;
27257;SDS011;62045;49.986;8.672;2022-08-19T06:52:27;3.97;;;3.58;;
27257;SDS011;62045;49.986;8.672;2022-08-19T06:57:29;4.78;;;4.30;;
27257;SDS011;62045;49.986;8.672;2022-08-19T07:02:30;4.37;;;3.73;;
27257;SDS011;62045;49.986;8.672;2022-08-19T07:07:31;4.70;;;4.20;;
27257;SDS011;62045;49.986;8.672;2022-08-19T07:12:34;4.65;;;4.18;;
27257;SDS011;62045;49.986;8.672;2022-08-19T07:17:35;4.73;;;4.13;;
27257;SDS011;62045;49.986;8.672;2022-08-19T07:22:35;9.57;;;5.15;;
27257;SDS011;62045;49.986;8.672;2022-08-19T07:27:39;7.93;;;4.43;;
27257;SDS011;62045;49.986;8.672;2022-08-19T07:32:40;7.43;;;4.80;;
27257;SDS011;62045;49.986;8.672;2022-08-19T07:37:41;9.95;;;4.90;;
27257;SDS011;62045;49.986;8.672;2022-08-19T07:42:43;7.70;;;4.43;;
27257;SDS011;62045;49.986;8.672;2022-08-19T07:47:44;6.87;;;4.33;;
27257;SDS011;62045;49.986;8.672;2022-08-19T07:52:45;6.20;;;4.07;;
27257;SDS011;62045;49.986;8.672;2022-08-19T07:57:47;7.10;;;4.10;;
27257;SDS011;62045;49.986;8.672;2022-08-19T08:02:48;5.43;;;3.87;;
27257;SDS011;62045;49.986;8.672;2022-08-19T08:07:49;4.72;;;3.42;;
27257;SDS011;62045;49.986;8.672;2022-08-19T08:12:52;4.93;;;3.67;;
27257;SDS011;62045;49.986;8.672;2022-08-19T08:17:53;5.20;;;3.75;;
27257;SDS011;62045;49.986;8.672;2022-08-19T08:22:53;5.32;;;3.65;;
27257;SDS011;62045;49.986;8.672;2022-08-19T08:27:56;5.35;;;3.80;;
27257;SDS011;62045;49.986;8.672;2022-08-19T08:32:57;6.13;;;3.50;;
27257;SDS011;62045;49.986;8.672;2022-08-19T08:37:58;6.25;;;3.65;;
27257;SDS011;62045;49.986;8.672;2022-08-19T08:43:02;6.60;;;3.80;;
27257;SDS011;62045;49.986;8.672;2022-08-19T08:48:09;4.05;;;3.55;;
27257;SDS011;62045;49.986;8.672;2022-08-19T08:53:17;5.47;;;3.67;;
27257;SDS011;62045;49.986;8.672;2022-08-19T08:58:24;5.60;;;3.80;;
27257;SDS011;62045;49.986;8.672;2022-08-19T09:03:28;5.30;;;3.92;;
27257;SDS011;62045;49.986;8.672;2022-08-19T09:08:33;4.97;;;3.40;;
27257;SDS011;62045;49.986;8.672;2022-08-19T09:13:48;5.03;;;3.67;;
27257;SDS011;62045;49.986;8.672;2022-08-19T09:19:02;6.07;;;3.20;;
27257;SDS011;62045;49.986;8.672;2022-08-19T09:24:04;4.65;;;3.17;;
27257;SDS011;62045;49.986;8.672;2022-08-19T09:29:07;3.90;;;2.83;;
27257;SDS011;62045;49.986;8.672;2022-08-19T09:34:08;4.23;;;3.20;;
27257;SDS011;62045;49.986;8.672;2022-08-19T09:39:09;5.47;;;3.30;;
27257;SDS011;62045;49.986;8.672;2022-08-19T09:44:11;4.45;;;3.25;;
27257;SDS011;62045;49.986;8.672;2022-08-19T09:49:13;5.70;;;3.38;;
27257;SDS011;62045;49.986;8.672;2022-08-19T09:54:14;4.63;;;3.20;;
27257;SDS011;62045;49.986;8.672;2022-08-19T09:59:17;3.92;;;2.90;;
27257;SDS011;62045;49.986;8.672;2022-08-19T10:04:18;3.97;;;2.80;;
27257;SDS011;62045;49.986;8.672;2022-08-19T10:09:19;4.68;;;3.15;;
27257;SDS011;62045;49.986;8.672;2022-08-19T10:14:21;4.47;;;3.30;;
27257;SDS011;62045;49.986;8.672;2022-08-19T10:19:22;4.70;;;3.10;;
27257;SDS011;62045;49.986;8.672;2022-08-19T10:24:23;4.55;;;3.20;;
27257;SDS011;62045;49.986;8.672;2022-08-19T10:29:26;4.95;;;3.30;;
27257;SDS011;62045;49.986;8.672;2022-08-19T10:34:27;8.02;;;3.88;;
27257;SDS011;62045;49.986;8.672;2022-08-19T10:39:29;8.30;;;3.80;;
27257;SDS011;62045;49.986;8.672;2022-08-19T10:44:33;5.30;;;3.63;;
27257;SDS011;62045;49.986;8.672;2022-08-19T10:49:34;9.13;;;4.70;;
27257;SDS011;62045;49.986;8.672;2022-08-19T10:54:35;5.80;;;3.80;;
27257;SDS011;62045;49.986;8.672;2022-08-19T10:59:37;5.97;;;3.97;;
27257;SDS011;62045;49.986;8.672;2022-08-19T11:04:38;5.43;;;3.30;;
27257;SDS011;62045;49.986;8.672;2022-08-19T11:09:40;5.32;;;3.85;;
27257;SDS011;62045;49.986;8.672;2022-08-19T11:14:43;4.90;;;3.13;;
27257;SDS011;62045;49.986;8.672;2022-08-19T11:19:44;4.87;;;3.57;;
27257;SDS011;62045;49.986;8.672;2022-08-19T11:24:44;5.18;;;3.28;;
27257;SDS011;62045;49.986;8.672;2022-08-19T11:29:47;4.82;;;3.42;;
27257;SDS011;62045;49.986;8.672;2022-08-19T11:34:48;4.60;;;3.23;;
27257;SDS011;62045;49.986;8.672;2022-08-19T11:39:48;4.53;;;2.90;;
27257;SDS011;62045;49.986;8.672;2022-08-19T11:44:51;5.60;;;3.47;;
27257;SDS011;62045;49.986;8.672;2022-08-19T11:49:52;4.23;;;3.40;;
27257;SDS011;62045;49.986;8.672;2022-08-19T11:54:53;4.38;;;3.22;;
27257;SDS011;62045;49.986;8.672;2022-08-19T11:59:55;5.85;;;3.50;;
27257;SDS011;62045;49.986;8.672;2022-08-19T12:04:56;4.87;;;3.47;;
27257;SDS011;62045;49.986;8.672;2022-08-19T12:09:57;4.82;;;3.20;;
27257;SDS011;62045;49.986;8.672;2022-08-19T12:14:59;4.72;;;3.90;;
27257;SDS011;62045;49.986;8.672;2022-08-19T12:20:00;4.40;;;3.60;;
27257;SDS011;62045;49.986;8.672;2022-08-19T12:25:01;5.00;;;3.58;;
27257;SDS011;62045;49.986;8.672;2022-08-19T12:30:05;4.03;;;3.03;;
27257;SDS011;62045;49.986;8.672;2022-08-19T12:35:08;4.82;;;3.20;;
27257;SDS011;62045;49.986;8.672;2022-08-19T12:40:09;4.90;;;3.40;;
27257;SDS011;62045;49.986;8.672;2022-08-19T12:45:12;4.22;;;3.15;;
27257;SDS011;62045;49.986;8.672;2022-08-19T12:55:14;4.47;;;3.22;;
27257;SDS011;62045;49.986;8.672;2022-08-19T13:00:17;4.63;;;3.50;;
27257;SDS011;62045;49.986;8.672;2022-08-19T13:05:21;5.95;;;3.13;;
27257;SDS011;62045;49.986;8.672;2022-08-19T13:10:24;4.15;;;3.28;;
27257;SDS011;62045;49.986;8.672;2022-08-19T13:15:32;3.65;;;3.10;;
27257;SDS011;62045;49.986;8.672;2022-08-19T13:20:34;4.22;;;3.20;;
27257;SDS011;62045;49.986;8.672;2022-08-19T13:25:36;4.57;;;3.63;;
27257;SDS011;62045;49.986;8.672;2022-08-19T13:30:38;5.20;;;3.58;;
27257;SDS011;62045;49.986;8.672;2022-08-19T13:35:40;4.77;;;3.60;;
27257;SDS011;62045;49.986;8.672;2022-08-19T13:40:44;18.42;;;12.52;;
27257;SDS011;62045;49.986;8.672;2022-08-19T13:45:46;6.05;;;4.40;;
27257;SDS011;62045;49.986;8.672;2022-08-19T13:50:47;9.57;;;4.57;;
27257;SDS011;62045;49.986;8.672;2022-08-19T13:55:48;6.75;;;4.50;;
27257;SDS011;62045;49.986;8.672;2022-08-19T14:00:51;5.40;;;3.78;;
27257;SDS011;62045;49.986;8.672;2022-08-19T14:05:52;5.60;;;4.17;;
27257;SDS011;62045;49.986;8.672;2022-08-19T14:10:53;5.03;;;4.00;;
27257;SDS011;62045;49.986;8.672;2022-08-19T14:15:56;5.25;;;3.67;;
27257;SDS011;62045;49.986;8.672;2022-08-19T14:20:57;5.53;;;3.60;;
27257;SDS011;62045;49.986;8.672;2022-08-19T14:26:04;4.53;;;3.42;;
27257;SDS011;62045;49.986;8.672;2022-08-19T14:31:08;5.28;;;3.90;;
27257;SDS011;62045;49.986;8.672;2022-08-19T14:36:10;5.70;;;3.53;;
27257;SDS011;62045;49.986;8.672;2022-08-19T14:41:12;4.53;;;3.58;;
27257;SDS011;62045;49.986;8.672;2022-08-19T14:46:16;4.32;;;3.20;;
27257;SDS011;62045;49.986;8.672;2022-08-19T14:51:19;4.22;;;3.15;;
27257;SDS011;62045;49.986;8.672;2022-08-19T14:56:22;3.80;;;3.20;;
27257;SDS011;62045;49.986;8.672;2022-08-19T15:01:26;4.68;;;3.30;;
27257;SDS011;62045;49.986;8.672;2022-08-19T15:06:28;3.80;;;3.00;;
27257;SDS011;62045;49.986;8.672;2022-08-19T15:11:29;3.78;;;2.90;;
27257;SDS011;62045;49.986;8.672;2022-08-19T15:16:31;6.10;;;3.65;;
27257;SDS011;62045;49.986;8.672;2022-08-19T15:21:32;7.03;;;6.07;;
27257;SDS011;62045;49.986;8.672;2022-08-19T15:26:33;8.23;;;5.28;;
27257;SDS011;62045;49.986;8.672;2022-08-19T15:31:35;4.88;;;4.38;;
27257;SDS011;62045;49.986;8.672;2022-08-19T15:36:36;5.13;;;4.00;;
27257;SDS011;62045;49.986;8.672;2022-08-19T15:41:37;4.25;;;3.28;;
27257;SDS011;62045;49.986;8.672;2022-08-19T15:46:42;4.80;;;3.13;;
27257;SDS011;62045;49.986;8.672;2022-08-19T15:51:45;4.35;;;3.03;;
27257;SDS011;62045;49.986;8.672;2022-08-19T16:01:49;3.92;;;2.58;;
27257;SDS011;62045;49.986;8.672;2022-08-19T16:06:51;3.53;;;2.40;;
27257;SDS011;62045;49.986;8.672;2022-08-19T16:11:53;3.00;;;2.50;;
27257;SDS011;62045;49.986;8.672;2022-08-19T16:16:56;3.67;;;2.40;;
27257;SDS011;62045;49.986;8.672;2022-08-19T16:21:57;3.17;;;2.30;;
27257;SDS011;62045;49.986;8.672;2022-08-19T16:26:58;3.75;;;2.22;;
27257;SDS011;62045;49.986;8.672;2022-08-19T16:32:00;4.65;;;2.55;;
27257;SDS011;62045;49.986;8.672;2022-08-19T16:42:03;2.95;;;2.00;;
27257;SDS011;62045;49.986;8.672;2022-08-19T16:47:07;4.07;;;2.30;;
27257;SDS011;62045;49.986;8.672;2022-08-19T16:52:08;3.03;;;1.87;;
27257;SDS011;62045;49.986;8.672;2022-08-19T16:57:09;2.60;;;2.00;;
27257;SDS011;62045;49.986;8.672;2022-08-19T17:02:11;3.78;;;1.95;;
27257;SDS011;62045;49.986;8.672;2022-08-19T17:07:12;2.70;;;1.90;;
27257;SDS011;62045;49.986;8.672;2022-08-19T17:12:13;2.83;;;2.20;;
27257;SDS011;62045;49.986;8.672;2022-08-19T17:17:15;3.00;;;2.10;;
27257;SDS011;62045;49.986;8.672;2022-08-19T17:22:16;3.42;;;2.30;;
27257;SDS011;62045;49.986;8.672;2022-08-19T17:27:17;2.92;;;2.33;;
27257;SDS011;62045;49.986;8.672;2022-08-19T17:32:19;3.40;;;2.30;;
27257;SDS011;62045;49.986;8.672;2022-08-19T17:37:20;3.05;;;2.35;;
27257;SDS011;62045;49.986;8.672;2022-08-19T17:42:21;5.30;;;2.60;;
27257;SDS011;62045;49.986;8.672;2022-08-19T17:47:24;3.45;;;2.53;;
27257;SDS011;62045;49.986;8.672;2022-08-19T17:52:25;3.13;;;2.38;;
27257;SDS011;62045;49.986;8.672;2022-08-19T17:57:26;3.55;;;2.53;;
27257;SDS011;62045;49.986;8.672;2022-08-19T18:02:29;3.78;;;2.22;;
27257;SDS011;62045;49.986;8.672;2022-08-19T18:07:29;3.73;;;2.40;;
27257;SDS011;62045;49.986;8.672;2022-08-19T18:12:30;3.35;;;2.30;;
27257;SDS011;62045;49.986;8.672;2022-08-19T18:17:33;3.30;;;2.50;;
27257;SDS011;62045;49.986;8.672;2022-08-19T18:22:34;2.73;;;2.30;;
27257;SDS011;62045;49.986;8.672;2022-08-19T18:27:36;3.10;;;2.25;;
27257;SDS011;62045;49.986;8.672;2022-08-19T18:32:39;3.85;;;2.40;;
27257;SDS011;62045;49.986;8.672;2022-08-19T18:37:40;3.00;;;2.30;;
27257;SDS011;62045;49.986;8.672;2022-08-19T18:42:43;3.40;;;2.35;;
27257;SDS011;62045;49.986;8.672;2022-08-19T18:47:46;3.23;;;2.47;;
27257;SDS011;62045;49.986;8.672;2022-08-19T18:52:47;3.53;;;2.40;;
27257;SDS011;62045;49.986;8.672;2022-08-19T18:57:48;3.53;;;2.40;;
27257;SDS011;62045;49.986;8.672;2022-08-19T19:02:50;4.18;;;2.60;;
27257;SDS011;62045;49.986;8.672;2022-08-19T19:07:51;3.20;;;2.60;;
27257;SDS011;62045;49.986;8.672;2022-08-19T19:12:52;4.13;;;2.67;;
27257;SDS011;62045;49.986;8.672;2022-08-19T19:17:55;4.68;;;2.30;;
27257;SDS011;62045;49.986;8.672;2022-08-19T19:27:56;3.20;;;2.38;;
27257;SDS011;62045;49.986;8.672;2022-08-19T19:32:59;3.38;;;2.63;;
27257;SDS011;62045;49.986;8.672;2022-08-19T19:38:00;3.70;;;2.85;;
27257;SDS011;62045;49.986;8.672;2022-08-19T19:43:00;3.95;;;2.70;;
27257;SDS011;62045;49.986;8.672;2022-08-19T19:48:03;3.15;;;2.20;;
27257;SDS011;62045;49.986;8.672;2022-08-19T19:53:04;3.22;;;2.72;;
27257;SDS011;62045;49.986;8.672;2022-08-19T19:58:06;2.90;;;2.28;;
27257;SDS011;62045;49.986;8.672;2022-08-19T20:03:08;4.20;;;3.13;;
27257;SDS011;62045;49.986;8.672;2022-08-19T20:08:09;3.27;;;2.43;;
27257;SDS011;62045;49.986;8.672;2022-08-19T20:13:10;3.85;;;2.58;;
27257;SDS011;62045;49.986;8.672;2022-08-19T20:18:13;3.30;;;2.42;;
27257;SDS011;62045;49.986;8.672;2022-08-19T20:23:13;3.50;;;2.80;;
27257;SDS011;62045;49.986;8.672;2022-08-19T20:28:15;3.50;;;2.40;;
27257;SDS011;62045;49.986;8.672;2022-08-19T20:33:18;2.97;;;2.38;;
27257;SDS011;62045;49.986;8.672;2022-08-19T20:38:18;3.73;;;2.63;;
27257;SDS011;62045;49.986;8.672;2022-08-19T20:43:19;3.03;;;2.58;;
27257;SDS011;62045;49.986;8.672;2022-08-19T20:48:22;4.22;;;2.55;;
27257;SDS011;62045;49.986;8.672;2022-08-19T20:53:23;3.22;;;2.70;;
27257;SDS011;62045;49.986;8.672;2022-08-19T20:58:25;3.17;;;2.40;;
27257;SDS011;62045;49.986;8.672;2022-08-19T21:03:29;6.47;;;2.63;;
27257;SDS011;62045;49.986;8.672;2022-08-19T21:08:31;3.55;;;2.70;;
27257;SDS011;62045;49.986;8.672;2022-08-19T21:13:32;3.50;;;2.70;;
27257;SDS011;62045;49.986;8.672;2022-08-19T21:18:35;3.55;;;2.50;;
27257;SDS011;62045;49.986;8.672;2022-08-19T21:23:35;3.03;;;2.43;;
27257;SDS011;62045;49.986;8.672;2022-08-19T21:28:36;3.50;;;2.60;;
27257;SDS011;62045;49.986;8.672;2022-08-19T21:33:39;3.40;;;2.67;;
27257;SDS011;62045;49.986;8.672;2022-08-19T21:38:40;3.33;;;2.70;;
27257;SDS011;62045;49.986;8.672;2022-08-19T21:43:41;3.53;;;2.90;;
27257;SDS011;62045;49.986;8.672;2022-08-19T21:48:43;3.35;;;2.55;;
27257;SDS011;62045;49.986;8.672;2022-08-19T21:53:44;3.50;;;2.87;;
27257;SDS011;62045;49.986;8.672;2022-08-19T21:58:44;3.85;;;3.20;;
27257;SDS011;62045;49.986;8.672;2022-08-19T22:03:47;3.15;;;2.60;;
27257;SDS011;62045;49.986;8.672;2022-08-19T22:08:48;3.03;;;2.30;;
27257;SDS011;62045;49.986;8.672;2022-08-19T22:13:49;3.45;;;2.55;;
27257;SDS011;62045;49.986;8.672;2022-08-19T22:18:51;3.05;;;2.70;;
27257;SDS011;62045;49.986;8.672;2022-08-19T22:23:52;3.25;;;2.78;;
27257;SDS011;62045;49.986;8.672;2022-08-19T22:28:53;3.20;;;2.50;;
27257;SDS011;62045;49.986;8.672;2022-08-19T22:33:55;3.63;;;2.42;;
27257;SDS011;62045;49.986;8.672;2022-08-19T22:38:56;3.23;;;2.70;;
27257;SDS011;62045;49.986;8.672;2022-08-19T22:43:57;3.28;;;2.60;;
27257;SDS011;62045;49.986;8.672;2022-08-19T22:48:59;3.38;;;2.53;;
27257;SDS011;62045;49.986;8.672;2022-08-19T22:54:00;2.97;;;2.50;;
27257;SDS011;62045;49.986;8.672;2022-08-19T22:59:02;3.35;;;2.65;;
27257;SDS011;62045;49.986;8.672;2022-08-19T23:04:04;3.33;;;2.50;;
27257;SDS011;62045;49.986;8.672;2022-08-19T23:09:06;3.33;;;2.67;;
27257;SDS011;62045;49.986;8.672;2022-08-19T23:14:08;3.50;;;2.63;;
27257;SDS011;62045;49.986;8.672;2022-08-19T23:19:11;3.10;;;2.63;;
27257;SDS011;62045;49.986;8.672;2022-08-19T23:24:12;3.05;;;2.33;;
27257;SDS011;62045;49.986;8.672;2022-08-19T23:29:13;2.95;;;2.47;;
27257;SDS011;62045;49.986;8.672;2022-08-19T23:34:15;3.45;;;2.50;;
27257;SDS011;62045;49.986;8.672;2022-08-19T23:39:16;3.20;;;2.80;;
27257;SDS011;62045;49.986;8.672;2022-08-19T23:44:17;3.20;;;2.63;;
27257;SDS011;62045;49.986;8.672;2022-08-19T23:49:19;2.85;;;2.25;;
27257;SDS011;62045;49.986;8.672;2022-08-19T23:54:20;3.50;;;2.63;;
27257;SDS011;62045;49.986;8.672;2022-08-19T23:59:21;3.45;;;2.67;;
